sensor_id;sensor_type;location;lat;lon;timestamp;pressure;altitude;pressure_sealevel;temperature;humidity
10978;BME280;5542;48.272;10.794;2023-05-12T00:02:19;95389.25;;;10.71;94.04
10978;BME280;5542;48.272;10.794;2023-05-12T00:04:46;95387.09;;;10.68;94.12
10978;BME280;5542;48.272;10.794;2023-05-12T00:07:14;95392.91;;;10.70;94.25
10978;BME280;5542;48.272;10.794;2023-05-12T00:09:42;95381.81;;;10.68;94.37
10978;BME280;5542;48.272;10.794;2023-05-12T00:12:10;95386.06;;;10.69;94.28
10978;BME280;5542;48.272;10.794;2023-05-12T00:14:37;95380.31;;;10.72;94.44
10978;BME280;5542;48.272;10.794;2023-05-12T00:17:04;95379.31;;;10.73;94.32
10978;BME280;5542;48.272;10.794;2023-05-12T00:19:31;95375.63;;;10.74;94.24
10978;BME280;5542;48.272;10.794;2023-05-12T00:21:57;95376.19;;;10.76;93.98
10978;BME280;5542;48.272;10.794;2023-05-12T00:24:24;95376.97;;;10.76;93.63
10978;BME280;5542;48.272;10.794;2023-05-12T00:26:52;95376.19;;;10.76;93.83
10978;BME280;5542;48.272;10.794;2023-05-12T00:29:20;95380.19;;;10.79;93.77
10978;BME280;5542;48.272;10.794;2023-05-12T00:31:46;95379.38;;;10.78;93.62
10978;BME280;5542;48.272;10.794;2023-05-12T00:34:13;95375.16;;;10.77;93.79
10978;BME280;5542;48.272;10.794;2023-05-12T00:36:39;95375.22;;;10.82;93.53
10978;BME280;5542;48.272;10.794;2023-05-12T00:39:06;95371.59;;;10.83;93.28
10978;BME280;5542;48.272;10.794;2023-05-12T00:41:32;95374.75;;;10.85;93.18
10978;BME280;5542;48.272;10.794;2023-05-12T00:43:59;95370.53;;;10.84;93.32
10978;BME280;5542;48.272;10.794;2023-05-12T00:46:27;95372.94;;;10.86;93.04
10978;BME280;5542;48.272;10.794;2023-05-12T00:48:53;95359.44;;;10.82;92.69
10978;BME280;5542;48.272;10.794;2023-05-12T00:51:20;95362.69;;;10.72;93.06
10978;BME280;5542;48.272;10.794;2023-05-12T00:53:47;95361.28;;;10.65;93.49
10978;BME280;5542;48.272;10.794;2023-05-12T00:56:14;95357.06;;;10.64;93.82
10978;BME280;5542;48.272;10.794;2023-05-12T00:58:42;95352.91;;;10.68;93.34
10978;BME280;5542;48.272;10.794;2023-05-12T01:01:08;95351.47;;;10.60;93.76
10978;BME280;5542;48.272;10.794;2023-05-12T01:03:36;95354.88;;;10.61;94.07
10978;BME280;5542;48.272;10.794;2023-05-12T01:06:09;95352.25;;;10.61;93.97
10978;BME280;5542;48.272;10.794;2023-05-12T01:08:38;95357.53;;;10.61;94.04
10978;BME280;5542;48.272;10.794;2023-05-12T01:11:05;95355.94;;;10.60;94.18
10978;BME280;5542;48.272;10.794;2023-05-12T01:13:32;95354.81;;;10.56;94.49
10978;BME280;5542;48.272;10.794;2023-05-12T01:15:59;95356.56;;;10.50;94.64
10978;BME280;5542;48.272;10.794;2023-05-12T01:18:27;95353.13;;;10.49;94.96
10978;BME280;5542;48.272;10.794;2023-05-12T01:20:55;95353.69;;;10.51;95.07
10978;BME280;5542;48.272;10.794;2023-05-12T01:23:26;95351.38;;;10.55;95.16
10978;BME280;5542;48.272;10.794;2023-05-12T01:25:53;95352.50;;;10.59;94.39
10978;BME280;5542;48.272;10.794;2023-05-12T01:28:22;95352.50;;;10.59;93.75
10978;BME280;5542;48.272;10.794;2023-05-12T01:30:49;95351.72;;;10.59;93.60
10978;BME280;5542;48.272;10.794;2023-05-12T01:33:16;95352.19;;;10.56;93.94
10978;BME280;5542;48.272;10.794;2023-05-12T01:35:42;95346.34;;;10.54;94.33
10978;BME280;5542;48.272;10.794;2023-05-12T01:38:09;95346.84;;;10.50;94.52
10978;BME280;5542;48.272;10.794;2023-05-12T01:40:35;95352.31;;;10.49;94.59
10978;BME280;5542;48.272;10.794;2023-05-12T01:43:02;95351.28;;;10.50;94.80
10978;BME280;5542;48.272;10.794;2023-05-12T01:45:30;95353.69;;;10.51;94.81
10978;BME280;5542;48.272;10.794;2023-05-12T01:47:57;95361.09;;;10.55;93.90
10978;BME280;5542;48.272;10.794;2023-05-12T01:50:24;95357.09;;;10.52;94.04
10978;BME280;5542;48.272;10.794;2023-05-12T01:52:50;95362.59;;;10.50;93.76
10978;BME280;5542;48.272;10.794;2023-05-12T01:55:17;95361.81;;;10.50;93.97
10978;BME280;5542;48.272;10.794;2023-05-12T01:57:43;95359.41;;;10.48;94.12
10978;BME280;5542;48.272;10.794;2023-05-12T02:00:11;95361.47;;;10.46;94.30
10978;BME280;5542;48.272;10.794;2023-05-12T02:02:39;95358.84;;;10.46;94.81
10978;BME280;5542;48.272;10.794;2023-05-12T02:05:07;95362.28;;;10.47;94.77
10978;BME280;5542;48.272;10.794;2023-05-12T02:07:34;95361.03;;;10.49;94.98
10978;BME280;5542;48.272;10.794;2023-05-12T02:10:00;95363.66;;;10.49;94.69
10978;BME280;5542;48.272;10.794;2023-05-12T02:12:27;95366.28;;;10.49;94.76
10978;BME280;5542;48.272;10.794;2023-05-12T02:14:54;95361.09;;;10.55;94.46
10978;BME280;5542;48.272;10.794;2023-05-12T02:17:21;95361.66;;;10.57;94.14
10978;BME280;5542;48.272;10.794;2023-05-12T02:19:50;95359.28;;;10.55;94.13
10978;BME280;5542;48.272;10.794;2023-05-12T02:22:17;95356.63;;;10.55;93.99
10978;BME280;5542;48.272;10.794;2023-05-12T02:24:43;95363.94;;;10.53;94.48
10978;BME280;5542;48.272;10.794;2023-05-12T02:27:12;95367.38;;;10.54;94.35
10978;BME280;5542;48.272;10.794;2023-05-12T02:29:38;95359.19;;;10.50;94.14
10978;BME280;5542;48.272;10.794;2023-05-12T02:32:06;95355.75;;;10.49;94.30
10978;BME280;5542;48.272;10.794;2023-05-12T02:34:32;95357.56;;;10.49;94.04
10978;BME280;5542;48.272;10.794;2023-05-12T02:37:00;95359.97;;;10.50;94.03
10978;BME280;5542;48.272;10.794;2023-05-12T02:39:28;95355.75;;;10.49;93.93
10978;BME280;5542;48.272;10.794;2023-05-12T02:41:54;95353.69;;;10.51;93.72
10978;BME280;5542;48.272;10.794;2023-05-12T02:44:21;95353.69;;;10.51;93.73
10978;BME280;5542;48.272;10.794;2023-05-12T02:46:47;95352.63;;;10.52;93.52
10978;BME280;5542;48.272;10.794;2023-05-12T02:49:14;95351.59;;;10.54;93.53
10978;BME280;5542;48.272;10.794;2023-05-12T02:51:41;95353.22;;;10.55;93.41
10978;BME280;5542;48.272;10.794;2023-05-12T02:54:08;95358.47;;;10.55;93.33
10978;BME280;5542;48.272;10.794;2023-05-12T02:56:35;95352.19;;;10.56;93.01
10978;BME280;5542;48.272;10.794;2023-05-12T02:59:02;95343.50;;;10.55;93.04
10978;BME280;5542;48.272;10.794;2023-05-12T03:01:28;95349.78;;;10.54;92.78
10978;BME280;5542;48.272;10.794;2023-05-12T03:03:55;95348.97;;;10.54;93.03
10978;BME280;5542;48.272;10.794;2023-05-12T03:06:21;95351.28;;;10.50;92.98
10978;BME280;5542;48.272;10.794;2023-05-12T03:08:48;95354.13;;;10.48;92.99
10978;BME280;5542;48.272;10.794;2023-05-12T03:11:16;95350.50;;;10.49;92.84
10978;BME280;5542;48.272;10.794;2023-05-12T03:13:42;95354.13;;;10.48;93.03
10978;BME280;5542;48.272;10.794;2023-05-12T03:16:09;95359.41;;;10.48;93.01
10978;BME280;5542;48.272;10.794;2023-05-12T03:18:36;95355.75;;;10.49;92.79
10978;BME280;5542;48.272;10.794;2023-05-12T03:21:03;95355.75;;;10.49;92.79
10978;BME280;5542;48.272;10.794;2023-05-12T03:23:30;95360.19;;;10.49;92.79
10978;BME280;5542;48.272;10.794;2023-05-12T03:25:57;95355.19;;;10.47;92.59
10978;BME280;5542;48.272;10.794;2023-05-12T03:28:25;95359.88;;;10.45;92.88
10978;BME280;5542;48.272;10.794;2023-05-12T03:30:51;95353.59;;;10.46;92.79
10978;BME280;5542;48.272;10.794;2023-05-12T03:33:18;95359.88;;;10.45;92.89
10978;BME280;5542;48.272;10.794;2023-05-12T03:35:45;95352.56;;;10.47;92.78
10978;BME280;5542;48.272;10.794;2023-05-12T03:38:11;95357.56;;;10.49;92.65
10978;BME280;5542;48.272;10.794;2023-05-12T03:40:38;95363.66;;;10.49;92.45
10978;BME280;5542;48.272;10.794;2023-05-12T03:43:05;95359.72;;;10.52;92.27
10978;BME280;5542;48.272;10.794;2023-05-12T03:45:32;95358.94;;;10.51;92.06
10978;BME280;5542;48.272;10.794;2023-05-12T03:47:59;95358.16;;;10.51;92.13
10978;BME280;5542;48.272;10.794;2023-05-12T03:50:26;95353.34;;;10.48;92.26
10978;BME280;5542;48.272;10.794;2023-05-12T03:52:52;95344.91;;;10.46;92.71
10978;BME280;5542;48.272;10.794;2023-05-12T03:55:20;95350.97;;;10.46;92.79
10978;BME280;5542;48.272;10.794;2023-05-12T03:57:46;95347.28;;;10.47;92.71
10978;BME280;5542;48.272;10.794;2023-05-12T04:00:13;95352.56;;;10.47;93.01
10978;BME280;5542;48.272;10.794;2023-05-12T04:02:41;95358.38;;;10.49;92.98
10978;BME280;5542;48.272;10.794;2023-05-12T04:05:08;95349.69;;;10.49;92.64
10978;BME280;5542;48.272;10.794;2023-05-12T04:07:35;95353.03;;;10.44;92.56
10978;BME280;5542;48.272;10.794;2023-05-12T04:10:02;95351.34;;;10.38;92.92
10978;BME280;5542;48.272;10.794;2023-05-12T04:12:29;95351.59;;;10.37;93.17
10978;BME280;5542;48.272;10.794;2023-05-12T04:14:56;95351.34;;;10.38;93.46
10978;BME280;5542;48.272;10.794;2023-05-12T04:17:22;95346.66;;;10.40;93.56
10978;BME280;5542;48.272;10.794;2023-05-12T04:19:50;95346.41;;;10.42;93.61
10978;BME280;5542;48.272;10.794;2023-05-12T04:22:17;95352.81;;;10.46;93.74
10978;BME280;5542;48.272;10.794;2023-05-12T04:24:44;95357.81;;;10.47;93.48
10978;BME280;5542;48.272;10.794;2023-05-12T04:27:10;95359.97;;;10.50;93.57
10978;BME280;5542;48.272;10.794;2023-05-12T04:29:40;95355.75;;;10.49;93.71
10978;BME280;5542;48.272;10.794;2023-05-12T04:32:07;95356.31;;;10.51;93.53
10978;BME280;5542;48.272;10.794;2023-05-12T04:34:33;95362.44;;;10.57;93.69
10978;BME280;5542;48.272;10.794;2023-05-12T04:37:01;95364.03;;;10.58;94.00
10978;BME280;5542;48.272;10.794;2023-05-12T04:39:29;95362.78;;;10.61;94.03
10978;BME280;5542;48.272;10.794;2023-05-12T04:41:56;95367.56;;;10.64;93.60
10978;BME280;5542;48.272;10.794;2023-05-12T04:44:23;95370.28;;;10.69;93.77
10978;BME280;5542;48.272;10.794;2023-05-12T04:46:49;95370.84;;;10.71;94.00
10978;BME280;5542;48.272;10.794;2023-05-12T04:49:18;95368.78;;;10.73;93.43
10978;BME280;5542;48.272;10.794;2023-05-12T04:51:47;95363.63;;;10.78;93.49
10978;BME280;5542;48.272;10.794;2023-05-12T04:54:15;95369.16;;;10.82;93.29
10978;BME280;5542;48.272;10.794;2023-05-12T04:56:41;95376.97;;;10.76;93.38
10978;BME280;5542;48.272;10.794;2023-05-12T04:59:08;95378.47;;;10.72;93.32
10978;BME280;5542;48.272;10.794;2023-05-12T05:01:35;95373.94;;;10.68;93.53
10978;BME280;5542;48.272;10.794;2023-05-12T05:04:05;95387.09;;;10.68;93.88
10978;BME280;5542;48.272;10.794;2023-05-12T05:06:32;95380.81;;;10.69;93.83
10978;BME280;5542;48.272;10.794;2023-05-12T05:08:58;95377.94;;;10.70;94.15
10978;BME280;5542;48.272;10.794;2023-05-12T05:11:26;95383.81;;;10.77;94.24
10978;BME280;5542;48.272;10.794;2023-05-12T05:13:53;95389.22;;;10.83;94.86
10978;BME280;5542;48.272;10.794;2023-05-12T05:16:19;95388.00;;;10.90;94.91
10978;BME280;5542;48.272;10.794;2023-05-12T05:18:46;95388.09;;;10.95;94.91
10978;BME280;5542;48.272;10.794;2023-05-12T05:21:13;95387.16;;;11.01;94.89
10978;BME280;5542;48.272;10.794;2023-05-12T05:23:40;95385.13;;;11.09;94.93
10978;BME280;5542;48.272;10.794;2023-05-12T05:26:07;95384.97;;;11.15;94.54
10978;BME280;5542;48.272;10.794;2023-05-12T05:28:35;95386.09;;;11.19;94.22
10978;BME280;5542;48.272;10.794;2023-05-12T05:31:04;95388.00;;;11.24;93.97
10978;BME280;5542;48.272;10.794;2023-05-12T05:33:30;95395.97;;;11.29;92.98
10978;BME280;5542;48.272;10.794;2023-05-12T05:35:57;95399.66;;;11.28;92.79
10978;BME280;5542;48.272;10.794;2023-05-12T05:38:24;95397.03;;;11.28;93.09
10978;BME280;5542;48.272;10.794;2023-05-12T05:40:50;95393.84;;;11.26;92.94
10978;BME280;5542;48.272;10.794;2023-05-12T05:43:17;95399.09;;;11.26;92.79
10978;BME280;5542;48.272;10.794;2023-05-12T05:45:45;95391.22;;;11.26;92.85
10978;BME280;5542;48.272;10.794;2023-05-12T05:48:13;95396.78;;;11.29;92.81
10978;BME280;5542;48.272;10.794;2023-05-12T05:50:40;95394.72;;;11.32;92.84
10978;BME280;5542;48.272;10.794;2023-05-12T05:53:06;95391.03;;;11.33;93.02
10978;BME280;5542;48.272;10.794;2023-05-12T05:55:33;95394.47;;;11.33;93.07
10978;BME280;5542;48.272;10.794;2023-05-12T05:57:59;95395.56;;;11.37;92.53
10978;BME280;5542;48.272;10.794;2023-05-12T06:00:26;95398.75;;;11.39;91.13
10978;BME280;5542;48.272;10.794;2023-05-12T06:02:54;95400.59;;;11.39;90.44
10978;BME280;5542;48.272;10.794;2023-05-12T06:05:21;95400.66;;;11.44;89.05
10978;BME280;5542;48.272;10.794;2023-05-12T06:07:47;95395.91;;;11.41;88.98
10978;BME280;5542;48.272;10.794;2023-05-12T06:10:14;95406.03;;;11.32;88.87
10978;BME280;5542;48.272;10.794;2023-05-12T06:12:40;95410.50;;;11.32;89.86
10978;BME280;5542;48.272;10.794;2023-05-12T06:15:08;95405.50;;;11.30;90.90
10978;BME280;5542;48.272;10.794;2023-05-12T06:17:35;95408.91;;;11.31;91.30
10978;BME280;5542;48.272;10.794;2023-05-12T06:20:03;95401.56;;;11.33;91.65
10978;BME280;5542;48.272;10.794;2023-05-12T06:22:30;95402.34;;;11.33;91.50
10978;BME280;5542;48.272;10.794;2023-05-12T06:24:57;95406.50;;;11.29;91.33
10978;BME280;5542;48.272;10.794;2023-05-12T06:27:24;95402.84;;;11.30;90.74
10978;BME280;5542;48.272;10.794;2023-05-12T06:29:51;95412.75;;;11.23;90.90
10978;BME280;5542;48.272;10.794;2023-05-12T06:32:17;95403.78;;;11.24;91.66
10978;BME280;5542;48.272;10.794;2023-05-12T06:34:44;95411.84;;;11.34;91.60
10978;BME280;5542;48.272;10.794;2023-05-12T06:37:12;95413.53;;;11.40;91.45
10978;BME280;5542;48.272;10.794;2023-05-12T06:39:38;95413.38;;;11.47;90.61
10978;BME280;5542;48.272;10.794;2023-05-12T06:42:05;95411.53;;;11.47;90.21
10978;BME280;5542;48.272;10.794;2023-05-12T06:44:32;95412.38;;;11.53;90.35
10978;BME280;5542;48.272;10.794;2023-05-12T06:46:58;95415.00;;;11.70;87.87
10978;BME280;5542;48.272;10.794;2023-05-12T06:49:25;95413.84;;;11.61;86.11
10978;BME280;5542;48.272;10.794;2023-05-12T06:51:52;95412.47;;;11.58;87.34
10978;BME280;5542;48.272;10.794;2023-05-12T06:54:20;95409.03;;;11.58;88.79
10978;BME280;5542;48.272;10.794;2023-05-12T06:56:46;95413.84;;;11.61;89.58
10978;BME280;5542;48.272;10.794;2023-05-12T06:59:13;95408.94;;;11.69;89.80
10978;BME280;5542;48.272;10.794;2023-05-12T07:01:39;95413.19;;;11.70;89.96
10978;BME280;5542;48.272;10.794;2023-05-12T07:04:07;95416.19;;;11.79;89.73
10978;BME280;5542;48.272;10.794;2023-05-12T07:06:33;95412.06;;;11.83;89.82
10978;BME280;5542;48.272;10.794;2023-05-12T07:09:00;95416.09;;;11.91;89.87
10978;BME280;5542;48.272;10.794;2023-05-12T07:11:28;95419.00;;;11.89;85.39
10978;BME280;5542;48.272;10.794;2023-05-12T07:13:55;95422.81;;;11.82;84.54
10978;BME280;5542;48.272;10.794;2023-05-12T07:16:21;95421.38;;;11.91;84.21
10978;BME280;5542;48.272;10.794;2023-05-12T07:18:48;95420.03;;;11.88;85.00
10978;BME280;5542;48.272;10.794;2023-05-12T07:21:14;95416.66;;;11.76;84.63
10978;BME280;5542;48.272;10.794;2023-05-12T07:23:41;95419.09;;;11.61;85.40
10978;BME280;5542;48.272;10.794;2023-05-12T07:26:08;95425.56;;;11.70;87.00
10978;BME280;5542;48.272;10.794;2023-05-12T07:28:36;95420.91;;;11.77;88.05
10978;BME280;5542;48.272;10.794;2023-05-12T07:31:03;95421.22;;;11.80;87.98
10978;BME280;5542;48.272;10.794;2023-05-12T07:33:31;95425.56;;;11.70;87.60
10978;BME280;5542;48.272;10.794;2023-05-12T07:35:58;95422.06;;;11.64;87.92
10978;BME280;5542;48.272;10.794;2023-05-12T07:38:25;95424.09;;;11.79;87.32
10978;BME280;5542;48.272;10.794;2023-05-12T07:40:51;95422.91;;;11.87;85.19
10978;BME280;5542;48.272;10.794;2023-05-12T07:43:18;95421.00;;;11.65;84.66
10978;BME280;5542;48.272;10.794;2023-05-12T07:45:46;95422.94;;;11.53;85.60
10978;BME280;5542;48.272;10.794;2023-05-12T07:48:13;95422.06;;;11.47;86.44
10978;BME280;5542;48.272;10.794;2023-05-12T07:50:40;95423.66;;;11.48;86.95
10978;BME280;5542;48.272;10.794;2023-05-12T07:53:06;95421.25;;;11.64;85.38
10978;BME280;5542;48.272;10.794;2023-05-12T07:55:33;95423.56;;;11.60;86.10
10978;BME280;5542;48.272;10.794;2023-05-12T07:58:00;95421.66;;;11.56;86.57
10978;BME280;5542;48.272;10.794;2023-05-12T08:00:27;95419.75;;;11.51;87.52
10978;BME280;5542;48.272;10.794;2023-05-12T08:02:55;95418.97;;;11.50;87.61
10978;BME280;5542;48.272;10.794;2023-05-12T08:05:21;95420.38;;;11.58;87.73
10978;BME280;5542;48.272;10.794;2023-05-12T08:07:48;95419.63;;;11.79;85.36
10978;BME280;5542;48.272;10.794;2023-05-12T08:10:14;95425.31;;;11.71;85.32
10978;BME280;5542;48.272;10.794;2023-05-12T08:12:41;95419.72;;;11.68;86.66
10978;BME280;5542;48.272;10.794;2023-05-12T08:15:08;95417.25;;;11.78;87.41
10978;BME280;5542;48.272;10.794;2023-05-12T08:17:35;95414.84;;;11.93;84.16
10978;BME280;5542;48.272;10.794;2023-05-12T08:20:04;95409.25;;;11.90;85.12
10978;BME280;5542;48.272;10.794;2023-05-12T08:22:31;95412.44;;;11.92;85.89
10978;BME280;5542;48.272;10.794;2023-05-12T08:24:58;95413.38;;;12.02;86.08
10978;BME280;5542;48.272;10.794;2023-05-12T08:27:24;95413.94;;;12.26;86.70
10978;BME280;5542;48.272;10.794;2023-05-12T08:29:51;95416.72;;;12.42;84.68
10978;BME280;5542;48.272;10.794;2023-05-12T08:32:17;95412.22;;;12.64;79.73
10978;BME280;5542;48.272;10.794;2023-05-12T08:34:44;95414.94;;;12.47;79.39
10978;BME280;5542;48.272;10.794;2023-05-12T08:37:12;95418.56;;;12.41;78.84
10978;BME280;5542;48.272;10.794;2023-05-12T08:39:39;95424.94;;;12.45;80.95
10978;BME280;5542;48.272;10.794;2023-05-12T08:42:13;95419.31;;;12.59;83.02
10978;BME280;5542;48.272;10.794;2023-05-12T08:44:44;95419.19;;;12.75;80.86
10978;BME280;5542;48.272;10.794;2023-05-12T08:47:12;95424.72;;;12.74;78.42
10978;BME280;5542;48.272;10.794;2023-05-12T08:49:41;95420.78;;;12.76;77.28
10978;BME280;5542;48.272;10.794;2023-05-12T08:52:12;95426.75;;;12.67;77.17
10978;BME280;5542;48.272;10.794;2023-05-12T08:54:43;95427.50;;;12.62;78.30
10978;BME280;5542;48.272;10.794;2023-05-12T08:57:10;95422.28;;;12.67;76.98
10978;BME280;5542;48.272;10.794;2023-05-12T08:59:38;95431.97;;;12.62;77.52
10978;BME280;5542;48.272;10.794;2023-05-12T09:02:09;95427.22;;;12.59;78.29
10978;BME280;5542;48.272;10.794;2023-05-12T09:04:37;95429.81;;;12.53;78.82
10978;BME280;5542;48.272;10.794;2023-05-12T09:07:04;95426.75;;;12.67;78.57
10978;BME280;5542;48.272;10.794;2023-05-12T09:09:35;95431.22;;;12.66;81.51
10978;BME280;5542;48.272;10.794;2023-05-12T09:12:03;95418.88;;;12.72;80.27
10978;BME280;5542;48.272;10.794;2023-05-12T09:14:34;95424.72;;;12.74;81.77
10978;BME280;5542;48.272;10.794;2023-05-12T09:17:03;95425.31;;;12.81;83.14
10978;BME280;5542;48.272;10.794;2023-05-12T09:19:31;95416.91;;;12.84;83.46
10978;BME280;5542;48.272;10.794;2023-05-12T09:21:59;95429.44;;;12.99;82.20
10978;BME280;5542;48.272;10.794;2023-05-12T09:24:34;95428.44;;;13.05;82.39
10978;BME280;5542;48.272;10.794;2023-05-12T09:27:01;95429.31;;;13.11;83.44
10978;BME280;5542;48.272;10.794;2023-05-12T09:29:28;95424.66;;;13.23;83.15
10978;BME280;5542;48.272;10.794;2023-05-12T09:31:56;95426.94;;;13.41;82.37
10978;BME280;5542;48.272;10.794;2023-05-12T09:34:26;95433.03;;;13.47;79.70
10978;BME280;5542;48.272;10.794;2023-05-12T09:36:55;95428.88;;;13.56;79.69
10978;BME280;5542;48.272;10.794;2023-05-12T09:39:21;95424.44;;;13.67;78.60
10978;BME280;5542;48.272;10.794;2023-05-12T09:41:50;95426.88;;;13.68;78.16
10978;BME280;5542;48.272;10.794;2023-05-12T09:44:17;95434.47;;;13.60;75.37
10978;BME280;5542;48.272;10.794;2023-05-12T09:46:44;95428.44;;;13.69;74.41
10978;BME280;5542;48.272;10.794;2023-05-12T09:49:12;95436.47;;;13.47;74.63
10978;BME280;5542;48.272;10.794;2023-05-12T09:51:39;95431.75;;;13.49;71.80
10978;BME280;5542;48.272;10.794;2023-05-12T09:54:06;95429.44;;;13.58;72.42
10978;BME280;5542;48.272;10.794;2023-05-12T09:56:35;95431.53;;;13.24;75.35
10978;BME280;5542;48.272;10.794;2023-05-12T09:59:04;95432.03;;;13.21;77.57
10978;BME280;5542;48.272;10.794;2023-05-12T10:01:31;95432.31;;;13.24;78.44
10978;BME280;5542;48.272;10.794;2023-05-12T10:03:58;95427.94;;;13.35;78.44
10978;BME280;5542;48.272;10.794;2023-05-12T10:06:26;95432.50;;;13.45;79.58
10978;BME280;5542;48.272;10.794;2023-05-12T10:09:01;95429.22;;;13.65;79.47
10978;BME280;5542;48.272;10.794;2023-05-12T10:11:29;95423.66;;;13.66;79.09
10978;BME280;5542;48.272;10.794;2023-05-12T10:13:58;95433.22;;;13.72;77.14
10978;BME280;5542;48.272;10.794;2023-05-12T10:16:27;95428.97;;;13.71;75.40
10978;BME280;5542;48.272;10.794;2023-05-12T10:18:54;95430.75;;;13.61;77.48
10978;BME280;5542;48.272;10.794;2023-05-12T10:21:23;95434.03;;;13.73;76.07
10978;BME280;5542;48.272;10.794;2023-05-12T10:23:51;95429.78;;;13.72;77.20
10978;BME280;5542;48.272;10.794;2023-05-12T10:26:19;95431.94;;;13.80;73.64
10978;BME280;5542;48.272;10.794;2023-05-12T10:28:48;95429.75;;;13.67;74.34
10978;BME280;5542;48.272;10.794;2023-05-12T10:31:15;95436.22;;;13.44;75.74
10978;BME280;5542;48.272;10.794;2023-05-12T10:33:54;95429.47;;;13.26;76.38
10978;BME280;5542;48.272;10.794;2023-05-12T10:36:21;95434.09;;;13.19;77.18
10978;BME280;5542;48.272;10.794;2023-05-12T10:38:47;95439.31;;;13.08;79.41
10978;BME280;5542;48.272;10.794;2023-05-12T10:41:15;95436.13;;;13.06;80.38
10978;BME280;5542;48.272;10.794;2023-05-12T10:43:46;95436.75;;;13.19;79.60
10978;BME280;5542;48.272;10.794;2023-05-12T10:46:18;95442.25;;;13.12;80.74
10978;BME280;5542;48.272;10.794;2023-05-12T10:48:53;95439.53;;;13.02;81.40
10978;BME280;5542;48.272;10.794;2023-05-12T10:51:21;95441.41;;;13.06;81.98
10978;BME280;5542;48.272;10.794;2023-05-12T10:53:52;95443.00;;;13.07;81.85
10978;BME280;5542;48.272;10.794;2023-05-12T10:56:22;95448.28;;;13.07;82.35
10978;BME280;5542;48.272;10.794;2023-05-12T10:59:06;95449.59;;;12.78;82.25
10978;BME280;5542;48.272;10.794;2023-05-12T11:01:33;95448.53;;;12.79;82.27
10978;BME280;5542;48.272;10.794;2023-05-12T11:04:10;95451.38;;;12.72;81.35
10978;BME280;5542;48.272;10.794;2023-05-12T11:06:37;95452.13;;;12.68;82.59
10978;BME280;5542;48.272;10.794;2023-05-12T11:09:04;95455.41;;;12.80;81.91
10978;BME280;5542;48.272;10.794;2023-05-12T11:11:31;95458.13;;;12.63;83.31
10978;BME280;5542;48.272;10.794;2023-05-12T11:13:58;95456.66;;;12.72;84.18
10978;BME280;5542;48.272;10.794;2023-05-12T11:16:26;95466.78;;;12.59;82.52
10978;BME280;5542;48.272;10.794;2023-05-12T11:19:00;95470.88;;;12.27;83.79
10978;BME280;5542;48.272;10.794;2023-05-12T11:21:28;95467.72;;;12.25;84.22
10978;BME280;5542;48.272;10.794;2023-05-12T11:23:56;95471.13;;;12.26;84.80
10978;BME280;5542;48.272;10.794;2023-05-12T11:26:23;95471.38;;;12.24;84.55
10978;BME280;5542;48.272;10.794;2023-05-12T11:28:49;95464.47;;;12.40;84.42
10978;BME280;5542;48.272;10.794;2023-05-12T11:31:16;95471.19;;;12.31;84.68
10978;BME280;5542;48.272;10.794;2023-05-12T11:33:44;95465.97;;;12.14;86.57
10978;BME280;5542;48.272;10.794;2023-05-12T11:36:10;95467.69;;;12.03;88.42
10978;BME280;5542;48.272;10.794;2023-05-12T11:38:38;95466.47;;;12.11;88.19
10978;BME280;5542;48.272;10.794;2023-05-12T11:41:05;95464.44;;;12.18;88.46
10978;BME280;5542;48.272;10.794;2023-05-12T11:43:32;95467.50;;;12.32;87.54
10978;BME280;5542;48.272;10.794;2023-05-12T11:45:58;95460.94;;;12.56;85.43
10978;BME280;5542;48.272;10.794;2023-05-12T11:48:32;95465.72;;;12.38;86.13
10978;BME280;5542;48.272;10.794;2023-05-12T11:50:59;95467.72;;;12.25;86.02
10978;BME280;5542;48.272;10.794;2023-05-12T11:53:26;95457.28;;;12.36;84.88
10978;BME280;5542;48.272;10.794;2023-05-12T11:55:55;95467.50;;;12.32;84.84
10978;BME280;5542;48.272;10.794;2023-05-12T11:58:26;95466.91;;;12.25;85.78
10978;BME280;5542;48.272;10.794;2023-05-12T12:00:55;95472.78;;;12.32;85.69
10978;BME280;5542;48.272;10.794;2023-05-12T12:03:23;95467.63;;;12.42;86.21
10978;BME280;5542;48.272;10.794;2023-05-12T12:05:57;95468.72;;;12.24;84.86
10978;BME280;5542;48.272;10.794;2023-05-12T12:08:25;95474.16;;;12.35;84.56
10978;BME280;5542;48.272;10.794;2023-05-12T12:10:51;95475.13;;;12.28;85.23
10978;BME280;5542;48.272;10.794;2023-05-12T12:13:20;95480.94;;;12.30;86.31
10978;BME280;5542;48.272;10.794;2023-05-12T12:15:48;95473.09;;;12.36;84.92
10978;BME280;5542;48.272;10.794;2023-05-12T12:18:15;95475.72;;;12.57;85.73
10978;BME280;5542;48.272;10.794;2023-05-12T12:20:42;95482.34;;;12.60;82.48
10978;BME280;5542;48.272;10.794;2023-05-12T12:23:08;95469.53;;;12.69;81.84
10978;BME280;5542;48.272;10.794;2023-05-12T12:25:35;95464.63;;;12.77;80.90
10978;BME280;5542;48.272;10.794;2023-05-12T12:28:02;95471.66;;;12.72;81.40
10978;BME280;5542;48.272;10.794;2023-05-12T12:30:30;95473.13;;;12.63;81.27
10978;BME280;5542;48.272;10.794;2023-05-12T12:32:56;95473.13;;;12.63;83.30
10978;BME280;5542;48.272;10.794;2023-05-12T12:35:23;95479.19;;;12.85;80.77
10978;BME280;5542;48.272;10.794;2023-05-12T12:37:50;95468.84;;;12.78;80.64
10978;BME280;5542;48.272;10.794;2023-05-12T12:40:17;95472.34;;;12.84;78.70
10978;BME280;5542;48.272;10.794;2023-05-12T12:42:44;95464.47;;;12.89;80.10
10978;BME280;5542;48.272;10.794;2023-05-12T12:45:11;95466.28;;;13.11;78.25
10978;BME280;5542;48.272;10.794;2023-05-12T12:47:39;95468.34;;;13.08;78.08
10978;BME280;5542;48.272;10.794;2023-05-12T12:50:06;95467.72;;;13.23;78.68
10978;BME280;5542;48.272;10.794;2023-05-12T12:52:33;95464.31;;;13.28;77.47
10978;BME280;5542;48.272;10.794;2023-05-12T12:55:01;95474.63;;;13.62;76.96
10978;BME280;5542;48.272;10.794;2023-05-12T12:57:28;95468.78;;;13.54;68.33
10978;BME280;5542;48.272;10.794;2023-05-12T12:59:55;95465.56;;;13.20;69.93
10978;BME280;5542;48.272;10.794;2023-05-12T13:02:21;95464.41;;;13.38;71.29